createdAt,value
2023-05-03T00:00:10.115Z,0.00
2023-05-03T00:01:10.953Z,0.00
2023-05-03T00:02:11.978Z,0.00
2023-05-03T00:03:12.426Z,0.00
2023-05-03T00:04:13.289Z,0.00
2023-05-03T00:05:14.212Z,0.00
2023-05-03T00:06:15.103Z,0.00
2023-05-03T00:07:15.966Z,0.00
2023-05-03T00:08:16.834Z,0.00
2023-05-03T00:09:17.726Z,0.00
2023-05-03T00:10:18.632Z,0.00
2023-05-03T00:11:19.477Z,0.00
2023-05-03T00:12:20.395Z,0.00
2023-05-03T00:13:21.254Z,0.00
2023-05-03T00:14:22.136Z,0.00
2023-05-03T00:15:23.043Z,0.00
2023-05-03T00:16:23.950Z,0.00
2023-05-03T00:17:24.801Z,0.00
2023-05-03T00:18:25.714Z,0.00
2023-05-03T00:19:31.421Z,0.00
2023-05-03T00:20:28.340Z,0.00
2023-05-03T00:21:28.219Z,0.00
2023-05-03T00:22:29.098Z,0.00
2023-05-03T00:23:29.981Z,0.00
2023-05-03T00:24:30.942Z,0.00
2023-05-03T00:25:31.778Z,0.00
2023-05-03T00:26:32.644Z,0.00
2023-05-03T00:27:33.528Z,0.00
2023-05-03T00:28:34.408Z,0.00
2023-05-03T00:29:35.278Z,0.00
2023-05-03T00:30:36.209Z,0.00
2023-05-03T00:31:37.124Z,0.00
2023-05-03T00:32:37.579Z,0.00
2023-05-03T00:33:38.436Z,0.00
2023-05-03T00:34:39.342Z,0.00
2023-05-03T00:35:40.208Z,0.00
2023-05-03T00:36:41.142Z,0.00
2023-05-03T00:37:41.981Z,0.00
2023-05-03T00:38:42.864Z,0.00
2023-05-03T00:39:43.744Z,0.00
2023-05-03T00:40:44.633Z,0.00
2023-05-03T00:41:45.516Z,0.00
2023-05-03T00:42:46.412Z,0.00
2023-05-03T00:43:47.285Z,0.00
2023-05-03T00:44:48.160Z,0.00
2023-05-03T00:45:49.058Z,0.00
2023-05-03T00:46:49.992Z,0.00
2023-05-03T00:47:50.961Z,0.00
2023-05-03T00:48:51.862Z,0.00
2023-05-03T00:49:52.744Z,0.00
2023-05-03T00:50:53.603Z,0.00
2023-05-03T00:51:54.499Z,0.00
2023-05-03T00:52:55.370Z,0.00
2023-05-03T00:53:56.275Z,0.00
2023-05-03T00:54:57.225Z,0.00
2023-05-03T00:55:58.074Z,0.00
2023-05-03T00:56:58.960Z,0.00
2023-05-03T00:57:59.858Z,0.00
2023-05-03T00:59:00.765Z,0.00
2023-05-03T01:00:02.013Z,0.00
2023-05-03T01:01:02.514Z,0.00
2023-05-03T01:02:03.413Z,0.00
2023-05-03T01:03:04.320Z,0.00
2023-05-03T01:04:05.214Z,0.00
2023-05-03T01:05:06.146Z,0.00
2023-05-03T01:06:07.062Z,0.00
2023-05-03T01:07:07.924Z,0.00
2023-05-03T01:08:08.783Z,0.00
2023-05-03T01:09:09.661Z,0.00
2023-05-03T01:10:10.555Z,0.00
2023-05-03T01:11:11.432Z,0.00
2023-05-03T01:12:12.346Z,0.00
2023-05-03T01:13:13.234Z,0.00
2023-05-03T01:14:14.096Z,0.00
2023-05-03T01:15:14.988Z,0.00
2023-05-03T01:16:15.899Z,0.00
2023-05-03T01:17:16.732Z,0.00
2023-05-03T01:18:17.607Z,0.00
2023-05-03T01:19:18.515Z,0.00
2023-05-03T01:20:19.397Z,0.00
2023-05-03T01:21:20.262Z,0.00
2023-05-03T01:22:21.138Z,0.00
2023-05-03T01:23:22.021Z,0.00
2023-05-03T01:24:22.901Z,0.00
2023-05-03T01:25:23.796Z,0.00
2023-05-03T01:26:24.701Z,0.00
2023-05-03T01:27:25.545Z,0.00
2023-05-03T01:28:26.424Z,0.00
2023-05-03T01:29:27.309Z,0.00
2023-05-03T01:30:28.194Z,0.00
2023-05-03T01:31:29.145Z,0.00
2023-05-03T01:32:30.031Z,0.00
2023-05-03T01:33:30.889Z,0.00
2023-05-03T01:34:31.770Z,0.00
2023-05-03T01:35:32.673Z,0.00
2023-05-03T01:36:33.526Z,0.00
2023-05-03T01:37:34.431Z,0.00
2023-05-03T01:38:35.289Z,0.00
2023-05-03T01:39:36.167Z,0.00
2023-05-03T01:40:37.070Z,0.00
2023-05-03T01:41:37.969Z,0.00
2023-05-03T01:42:38.828Z,0.00
2023-05-03T01:43:39.778Z,0.00
2023-05-03T01:44:40.618Z,0.00
2023-05-03T01:45:41.548Z,0.00
2023-05-03T01:46:42.391Z,0.00
2023-05-03T01:47:43.282Z,0.00
2023-05-03T01:48:44.144Z,0.00
2023-05-03T01:49:45.050Z,0.00
2023-05-03T01:50:45.933Z,0.00
2023-05-03T01:51:46.790Z,0.00
2023-05-03T01:52:47.668Z,0.00
2023-05-03T01:53:48.542Z,0.00
2023-05-03T01:54:49.426Z,0.00
2023-05-03T01:55:50.342Z,0.00
2023-05-03T01:56:51.198Z,0.00
2023-05-03T01:57:52.067Z,0.00
2023-05-03T01:58:52.953Z,0.00
2023-05-03T01:59:53.829Z,0.00
2023-05-03T02:00:54.767Z,0.00
2023-05-03T02:01:55.612Z,0.00
2023-05-03T02:02:56.514Z,0.00
2023-05-03T02:03:57.409Z,0.00
2023-05-03T02:04:58.249Z,0.00
2023-05-03T02:05:59.158Z,0.00
2023-05-03T02:07:00.022Z,0.00
2023-05-03T02:08:00.920Z,0.00
2023-05-03T02:09:01.768Z,0.00
2023-05-03T02:10:02.841Z,0.00
2023-05-03T02:11:03.371Z,0.00
2023-05-03T02:12:04.250Z,0.00
2023-05-03T02:13:05.135Z,0.00
2023-05-03T02:14:06.034Z,0.00
2023-05-03T02:15:06.889Z,0.00
2023-05-03T02:16:07.808Z,0.00
2023-05-03T02:17:08.799Z,0.00
2023-05-03T02:18:09.168Z,0.00
2023-05-03T02:19:10.049Z,0.00
2023-05-03T02:20:10.966Z,0.00
2023-05-03T02:21:11.843Z,0.00
2023-05-03T02:22:12.702Z,0.00
2023-05-03T02:23:13.588Z,0.00
2023-05-03T02:24:14.472Z,0.00
2023-05-03T02:25:15.340Z,0.00
2023-05-03T02:26:16.252Z,0.00
2023-05-03T02:27:17.107Z,0.00
2023-05-03T02:28:17.981Z,0.00
2023-05-03T02:29:18.859Z,0.00
2023-05-03T02:30:19.751Z,0.00
2023-05-03T02:31:20.661Z,0.00
2023-05-03T02:32:21.642Z,0.00
2023-05-03T02:33:22.495Z,0.00
2023-05-03T02:34:23.379Z,0.00
2023-05-03T02:35:24.261Z,0.00
2023-05-03T02:36:25.158Z,0.00
2023-05-03T02:37:26.015Z,0.00
2023-05-03T02:38:26.940Z,0.00
2023-05-03T02:39:27.778Z,0.00
2023-05-03T02:40:28.662Z,0.00
2023-05-03T02:41:29.553Z,0.00
2023-05-03T02:42:30.439Z,0.00
2023-05-03T02:43:31.317Z,0.00
2023-05-03T02:44:33.717Z,0.00
2023-05-03T02:45:33.149Z,0.00
2023-05-03T02:46:34.038Z,0.00
2023-05-03T02:47:34.972Z,0.00
2023-05-03T02:48:35.802Z,0.00
2023-05-03T02:49:36.679Z,0.00
2023-05-03T02:50:37.589Z,0.00
2023-05-03T02:51:38.533Z,0.00
2023-05-03T02:52:39.398Z,0.00
2023-05-03T02:53:40.260Z,0.00
2023-05-03T02:54:41.131Z,0.00
2023-05-03T02:55:42.018Z,0.00
2023-05-03T02:56:42.896Z,0.00
2023-05-03T02:57:43.789Z,0.00
2023-05-03T02:58:44.654Z,0.00
2023-05-03T02:59:45.532Z,0.00
2023-05-03T03:00:46.400Z,0.00
2023-05-03T03:01:47.338Z,0.00
2023-05-03T03:02:48.304Z,0.00
2023-05-03T03:03:48.767Z,0.00
2023-05-03T03:04:49.632Z,0.00
2023-05-03T03:05:50.513Z,0.00
2023-05-03T03:06:51.452Z,0.00
2023-05-03T03:07:52.296Z,0.00
2023-05-03T03:08:53.181Z,0.00
2023-05-03T03:09:54.125Z,0.00
2023-05-03T03:10:54.964Z,0.00
2023-05-03T03:11:55.854Z,0.00
2023-05-03T03:12:56.734Z,0.00
2023-05-03T03:13:57.609Z,0.00
2023-05-03T03:14:58.498Z,0.00
2023-05-03T03:15:59.945Z,0.00
2023-05-03T03:17:00.291Z,0.00
2023-05-03T03:18:01.236Z,0.00
2023-05-03T03:19:02.068Z,0.00
2023-05-03T03:20:03.337Z,0.00
2023-05-03T03:21:03.881Z,0.00
2023-05-03T03:22:04.766Z,0.00
2023-05-03T03:23:05.620Z,0.00
2023-05-03T03:24:06.518Z,0.00
2023-05-03T03:25:07.379Z,0.00
2023-05-03T03:26:08.259Z,0.00
2023-05-03T03:27:09.141Z,0.00
2023-05-03T03:28:10.031Z,0.00
2023-05-03T03:29:10.944Z,0.00
2023-05-03T03:30:11.802Z,0.00
2023-05-03T03:31:12.690Z,0.00
2023-05-03T03:32:13.559Z,0.00
2023-05-03T03:33:14.485Z,0.00
2023-05-03T03:34:15.262Z,1.00
2023-05-03T03:35:16.160Z,0.00
2023-05-03T03:36:17.021Z,0.00
2023-05-03T03:37:17.935Z,0.00
2023-05-03T03:38:18.740Z,1.00
2023-05-03T03:39:19.569Z,1.00
2023-05-03T03:40:20.471Z,0.00
2023-05-03T03:41:21.414Z,0.00
2023-05-03T03:42:22.234Z,2.00
2023-05-03T03:43:23.061Z,1.00
2023-05-03T03:44:23.903Z,1.00
2023-05-03T03:45:24.726Z,1.00
2023-05-03T03:46:25.658Z,0.00
2023-05-03T03:47:26.629Z,2.00
2023-05-03T03:48:27.434Z,1.00
2023-05-03T03:49:28.250Z,1.00
2023-05-03T03:50:29.084Z,1.00
2023-05-03T03:51:29.905Z,1.00
2023-05-03T03:52:30.748Z,2.00
2023-05-03T03:53:31.570Z,5.00
2023-05-03T03:54:32.384Z,6.00
2023-05-03T03:55:33.212Z,8.00
2023-05-03T03:56:34.047Z,9.00
2023-05-03T03:57:34.865Z,6.00
2023-05-03T03:58:35.689Z,4.00
2023-05-03T03:59:36.540Z,9.00
2023-05-03T04:00:37.342Z,12.00
2023-05-03T04:01:38.246Z,15.00
2023-05-03T04:02:39.245Z,13.00
2023-05-03T04:03:39.729Z,12.00
2023-05-03T04:04:40.537Z,14.00
2023-05-03T04:05:41.376Z,19.00
2023-05-03T04:06:42.227Z,21.00
2023-05-03T04:07:43.035Z,24.00
2023-05-03T04:08:43.841Z,14.00
2023-05-03T04:09:44.678Z,23.00
2023-05-03T04:10:45.494Z,21.00
2023-05-03T04:11:46.408Z,35.00
2023-05-03T04:12:47.186Z,31.00
2023-05-03T04:13:48.012Z,32.00
2023-05-03T04:14:48.831Z,34.00
2023-05-03T04:15:49.650Z,28.00
2023-05-03T04:16:50.544Z,27.00
2023-05-03T04:17:51.383Z,30.00
2023-05-03T04:18:52.189Z,31.00
2023-05-03T04:19:53.016Z,32.00
2023-05-03T04:20:53.858Z,30.00
2023-05-03T04:21:54.689Z,37.00
2023-05-03T04:22:55.542Z,33.00
2023-05-03T04:23:56.361Z,31.00
2023-05-03T04:24:57.155Z,26.00
2023-05-03T04:25:57.971Z,35.00
2023-05-03T04:26:58.815Z,36.00
2023-05-03T04:27:59.635Z,38.00
2023-05-03T04:29:00.449Z,45.00
2023-05-03T04:30:01.601Z,40.00
2023-05-03T04:31:02.209Z,46.00
2023-05-03T04:32:03.045Z,43.00
2023-05-03T04:33:03.963Z,51.00
2023-05-03T04:34:04.730Z,50.00
2023-05-03T04:35:05.558Z,56.00
2023-05-03T04:36:06.408Z,55.00
2023-05-03T04:37:07.225Z,71.00
2023-05-03T04:38:08.070Z,72.00
2023-05-03T04:39:08.874Z,72.00
2023-05-03T04:40:09.777Z,66.00
2023-05-03T04:41:10.587Z,52.00
2023-05-03T04:42:11.422Z,69.00
2023-05-03T04:43:12.363Z,65.00
2023-05-03T04:44:13.207Z,61.00
2023-05-03T04:45:13.984Z,76.00
2023-05-03T04:46:14.847Z,81.00
2023-05-03T04:47:15.640Z,109.00
2023-05-03T04:48:16.459Z,118.00
2023-05-03T04:49:17.312Z,113.00
2023-05-03T04:50:18.137Z,107.00
2023-05-03T04:51:18.945Z,110.00
2023-05-03T04:52:19.770Z,117.00
2023-05-03T04:53:20.627Z,108.00
2023-05-03T04:54:21.436Z,87.00
2023-05-03T04:55:22.256Z,88.00
2023-05-03T04:56:23.096Z,96.00
2023-05-03T04:57:23.936Z,83.00
2023-05-03T04:58:24.754Z,88.00
2023-05-03T04:59:25.589Z,100.00
2023-05-03T05:00:26.432Z,87.00
2023-05-03T05:01:27.272Z,98.00
2023-05-03T05:02:28.170Z,113.00
2023-05-03T05:03:29.101Z,103.00
2023-05-03T05:04:29.908Z,154.00
2023-05-03T05:05:30.739Z,205.00
2023-05-03T05:06:31.673Z,153.00
2023-05-03T05:07:32.491Z,146.00
2023-05-03T05:08:33.351Z,202.00
2023-05-03T05:09:34.164Z,155.00
2023-05-03T05:10:34.993Z,195.00
2023-05-03T05:11:35.812Z,165.00
2023-05-03T05:12:36.637Z,165.00
2023-05-03T05:13:37.477Z,230.00
2023-05-03T05:14:38.284Z,187.00
2023-05-03T05:15:39.119Z,223.00
2023-05-03T05:16:39.973Z,141.00
2023-05-03T05:17:40.979Z,292.00
2023-05-03T05:18:41.359Z,202.00
2023-05-03T05:19:42.211Z,252.00
2023-05-03T05:20:43.009Z,341.00
2023-05-03T05:21:43.833Z,355.00
2023-05-03T05:22:44.658Z,305.00
2023-05-03T05:23:45.531Z,257.00
2023-05-03T05:24:46.328Z,288.00
2023-05-03T05:25:47.159Z,328.00
2023-05-03T05:26:47.985Z,427.00
2023-05-03T05:27:48.825Z,211.00
2023-05-03T05:28:49.646Z,426.00
2023-05-03T05:29:50.475Z,485.00
2023-05-03T05:30:51.309Z,601.00
2023-05-03T05:31:52.223Z,534.00
2023-05-03T05:32:53.134Z,683.00
2023-05-03T05:33:53.948Z,599.00
2023-05-03T05:34:54.767Z,448.00
2023-05-03T05:35:55.614Z,370.00
2023-05-03T05:36:56.440Z,467.00
2023-05-03T05:37:57.284Z,522.00
2023-05-03T05:38:58.132Z,482.00
2023-05-03T05:39:58.983Z,423.00
2023-05-03T05:40:59.797Z,480.00
2023-05-03T05:42:00.630Z,431.00
2023-05-03T05:43:01.486Z,388.00
2023-05-03T05:44:02.305Z,376.00
2023-05-03T05:45:03.152Z,344.00
2023-05-03T05:46:03.948Z,367.00
2023-05-03T05:47:06.104Z,378.00
2023-05-03T05:48:05.502Z,388.00
2023-05-03T05:49:06.291Z,466.00
2023-05-03T05:50:16.947Z,493.00
2023-05-03T05:51:08.853Z,444.00
2023-05-03T05:52:08.806Z,483.00
2023-05-03T05:53:09.631Z,404.00
2023-05-03T05:54:10.486Z,321.00
2023-05-03T05:55:11.287Z,314.00
2023-05-03T05:56:12.119Z,523.00
2023-05-03T05:57:12.934Z,532.00
2023-05-03T05:58:13.816Z,536.00
2023-05-03T05:59:14.677Z,623.00
2023-05-03T06:00:15.567Z,641.00
2023-05-03T06:01:16.379Z,935.00
2023-05-03T06:02:17.302Z,1293.00
2023-05-03T06:03:18.140Z,1250.00
2023-05-03T06:04:18.966Z,1146.00
2023-05-03T06:05:19.811Z,1514.00
2023-05-03T06:06:20.624Z,1126.00
2023-05-03T06:07:21.431Z,837.00
2023-05-03T06:08:22.260Z,683.00
2023-05-03T06:09:25.073Z,629.00
2023-05-03T06:10:23.649Z,1040.00
2023-05-03T06:11:24.538Z,970.00
2023-05-03T06:12:25.335Z,909.00
2023-05-03T06:13:26.160Z,846.00
2023-05-03T06:14:26.994Z,802.00
2023-05-03T06:15:27.803Z,856.00
2023-05-03T06:16:28.653Z,1114.00
2023-05-03T06:17:29.514Z,1250.00
2023-05-03T06:18:30.323Z,705.00
2023-05-03T06:19:31.144Z,667.00
2023-05-03T06:20:31.973Z,1771.00
2023-05-03T06:21:32.807Z,1704.00
2023-05-03T06:22:33.652Z,1707.00
2023-05-03T06:23:34.487Z,1718.00
2023-05-03T06:24:35.443Z,1682.00
2023-05-03T06:25:36.227Z,1624.00
2023-05-03T06:26:37.069Z,1895.00
2023-05-03T06:27:37.886Z,1681.00
2023-05-03T06:28:38.711Z,1740.00
2023-05-03T06:29:39.541Z,1879.00
2023-05-03T06:30:40.410Z,1553.00
2023-05-03T06:31:41.424Z,2080.00
2023-05-03T06:32:41.824Z,1969.00
2023-05-03T06:33:42.640Z,1783.00
2023-05-03T06:34:43.461Z,1868.00
2023-05-03T06:35:44.271Z,1812.00
2023-05-03T06:36:45.104Z,1763.00
2023-05-03T06:37:45.944Z,1759.00
2023-05-03T06:38:46.783Z,1826.00
2023-05-03T06:39:47.691Z,2010.00
2023-05-03T06:40:48.509Z,2263.00
2023-05-03T06:41:49.310Z,2193.00
2023-05-03T06:42:50.131Z,2144.00
2023-05-03T06:43:50.974Z,2354.00
2023-05-03T06:44:51.799Z,2697.00
2023-05-03T06:45:52.634Z,3234.00
2023-05-03T06:46:53.560Z,3081.00
2023-05-03T06:47:54.410Z,3091.00
2023-05-03T06:48:55.409Z,3607.00
2023-05-03T06:49:56.227Z,2227.00
2023-05-03T06:50:57.040Z,2990.00
2023-05-03T06:51:57.954Z,3341.00
2023-05-03T06:52:58.745Z,3302.00
2023-05-03T06:53:59.573Z,2934.00
2023-05-03T06:55:00.432Z,3061.00
2023-05-03T06:56:01.226Z,3299.00
2023-05-03T06:57:02.054Z,3644.00
2023-05-03T06:58:02.890Z,3031.00
2023-05-03T06:59:03.726Z,3025.00
2023-05-03T07:00:04.739Z,3660.00
2023-05-03T07:01:05.203Z,3382.00
2023-05-03T07:02:06.068Z,3181.00
2023-05-03T07:03:07.047Z,3558.00
2023-05-03T07:04:07.863Z,3543.00
2023-05-03T07:05:08.374Z,3250.00
2023-05-03T07:06:09.276Z,3957.00
2023-05-03T07:07:10.100Z,4484.00
2023-05-03T07:08:10.907Z,4568.00
2023-05-03T07:09:11.785Z,4613.00
2023-05-03T07:10:12.660Z,4853.00
2023-05-03T07:11:13.444Z,5194.00
2023-05-03T07:12:14.294Z,5534.00
2023-05-03T07:13:15.171Z,5780.00
2023-05-03T07:14:15.960Z,5840.00
2023-05-03T07:15:16.797Z,5880.00
2023-05-03T07:16:17.685Z,5934.00
2023-05-03T07:17:18.516Z,5808.00
2023-05-03T07:18:19.351Z,7467.00
2023-05-03T07:19:20.203Z,2669.00
2023-05-03T07:20:21.067Z,5705.00
2023-05-03T07:21:21.849Z,6193.00
2023-05-03T07:22:22.679Z,6698.00
2023-05-03T07:23:23.544Z,6563.00
2023-05-03T07:24:24.357Z,7152.00
2023-05-03T07:25:25.277Z,5997.00
2023-05-03T07:26:26.067Z,5264.00
2023-05-03T07:27:26.916Z,2139.00
2023-05-03T07:28:27.727Z,2216.00
2023-05-03T07:29:28.579Z,1140.00
2023-05-03T07:30:29.458Z,1232.00
2023-05-03T07:31:30.254Z,7930.00
2023-05-03T07:32:31.178Z,4730.00
2023-05-03T07:33:32.112Z,3493.00
2023-05-03T07:34:33.033Z,2436.00
2023-05-03T07:35:33.447Z,2051.00
2023-05-03T07:36:34.271Z,1758.00
2023-05-03T07:37:35.125Z,1937.00
2023-05-03T07:38:35.996Z,1875.00
2023-05-03T07:39:36.781Z,1518.00
2023-05-03T07:40:37.771Z,1141.00
2023-05-03T07:41:38.550Z,2789.00
2023-05-03T07:42:39.395Z,1722.00
2023-05-03T07:43:40.219Z,1675.00
2023-05-03T07:44:41.067Z,1609.00
2023-05-03T07:45:41.936Z,1519.00
2023-05-03T07:46:42.722Z,1483.00
2023-05-03T07:47:43.579Z,1584.00
2023-05-03T07:48:44.385Z,2225.00
2023-05-03T07:49:45.220Z,2830.00
2023-05-03T07:50:46.041Z,1074.00
2023-05-03T07:51:46.872Z,5006.00
2023-05-03T07:52:47.735Z,8171.00
2023-05-03T07:53:48.550Z,1944.00
2023-05-03T07:54:49.366Z,10319.00
2023-05-03T07:55:50.220Z,3043.00
2023-05-03T07:56:51.009Z,2132.00
2023-05-03T07:57:51.827Z,1530.00
2023-05-03T07:59:04.638Z,10119.00
2023-05-03T07:59:54.391Z,4163.00
2023-05-03T08:00:54.214Z,2024.00
2023-05-03T08:01:55.110Z,2219.00
2023-05-03T08:02:56.200Z,901.00
2023-05-03T08:03:56.724Z,1269.00
2023-05-03T08:04:57.275Z,2891.00
2023-05-03T08:05:57.674Z,738.00
2023-05-03T08:06:58.512Z,29536.00
2023-05-03T08:07:59.373Z,22659.00
2023-05-03T08:09:00.218Z,2012.00
2023-05-03T08:10:01.096Z,1292.00
2023-05-03T08:11:01.571Z,1266.00
2023-05-03T08:12:02.353Z,1436.00
2023-05-03T08:13:03.156Z,1788.00
2023-05-03T08:14:04.019Z,2030.00
2023-05-03T08:15:04.843Z,2340.00
2023-05-03T08:16:05.704Z,3586.00
2023-05-03T08:17:06.496Z,2260.00
2023-05-03T08:18:07.400Z,2030.00
2023-05-03T08:19:08.224Z,3226.00
2023-05-03T08:20:09.050Z,3162.00
2023-05-03T08:21:09.900Z,2925.00
2023-05-03T08:22:10.680Z,2663.00
2023-05-03T08:23:11.518Z,2133.00
2023-05-03T08:24:13.687Z,2397.00
2023-05-03T08:25:13.244Z,2877.00
2023-05-03T08:26:14.398Z,2488.00
2023-05-03T08:27:14.708Z,1480.00
2023-05-03T08:28:15.534Z,2935.00
2023-05-03T08:29:16.371Z,1943.00
2023-05-03T08:30:17.198Z,2905.00
2023-05-03T08:31:18.143Z,1911.00
2023-05-03T08:32:18.973Z,2397.00
2023-05-03T08:33:19.800Z,1998.00
2023-05-03T08:34:20.660Z,1062.00
2023-05-03T08:35:21.487Z,2100.00
2023-05-03T08:36:22.310Z,3078.00
2023-05-03T08:37:23.158Z,2031.00
2023-05-03T08:38:23.964Z,2817.00
2023-05-03T08:39:24.801Z,2167.00
2023-05-03T08:40:25.632Z,1419.00
2023-05-03T08:41:26.483Z,1316.00
2023-05-03T08:42:27.286Z,1004.00
2023-05-03T08:43:28.141Z,1079.00
2023-05-03T08:44:29.131Z,1141.00
2023-05-03T08:45:29.909Z,923.00
2023-05-03T08:46:30.910Z,1858.00
2023-05-03T08:47:31.275Z,2108.00
2023-05-03T08:48:32.076Z,2141.00
2023-05-03T08:49:32.923Z,2654.00
2023-05-03T08:50:33.740Z,2818.00
2023-05-03T08:51:34.571Z,2493.00
2023-05-03T08:52:35.394Z,2680.00
2023-05-03T08:53:36.223Z,2271.00
2023-05-03T08:54:37.049Z,2618.00
2023-05-03T08:55:37.902Z,2000.00
2023-05-03T08:56:38.800Z,1991.00
2023-05-03T08:57:39.566Z,2166.00
2023-05-03T08:58:40.390Z,2587.00
2023-05-03T08:59:41.225Z,2231.00
2023-05-03T09:00:42.052Z,1306.00
2023-05-03T09:01:42.917Z,1748.00
2023-05-03T09:02:43.786Z,2024.00
2023-05-03T09:03:46.315Z,2171.00
2023-05-03T09:04:45.250Z,2210.00
2023-05-03T09:05:46.972Z,2199.00
2023-05-03T09:06:46.827Z,1211.00
2023-05-03T09:07:47.646Z,1510.00
2023-05-03T09:08:48.477Z,1188.00
2023-05-03T09:09:49.311Z,1980.00
2023-05-03T09:10:50.127Z,1479.00
2023-05-03T09:11:50.989Z,1189.00
2023-05-03T09:12:51.774Z,2188.00
2023-05-03T09:13:52.611Z,2171.00
2023-05-03T09:14:53.433Z,1930.00
2023-05-03T09:15:54.486Z,1607.00
2023-05-03T09:16:55.016Z,2272.00
2023-05-03T09:17:55.850Z,1951.00
2023-05-03T09:18:56.672Z,1777.00
2023-05-03T09:19:57.479Z,1481.00
2023-05-03T09:20:59.189Z,1331.00
2023-05-03T09:21:59.075Z,1222.00
2023-05-03T09:22:59.911Z,2029.00
2023-05-03T09:24:00.745Z,1529.00
2023-05-03T09:25:01.565Z,1253.00
2023-05-03T09:26:02.390Z,1065.00
2023-05-03T09:27:03.336Z,832.00
2023-05-03T09:28:04.098Z,1318.00
2023-05-03T09:29:04.956Z,2304.00
2023-05-03T09:30:06.053Z,812.00
2023-05-03T09:31:06.380Z,2663.00
2023-05-03T09:32:07.233Z,861.00
2023-05-03T09:33:08.218Z,1521.00
2023-05-03T09:34:08.542Z,2194.00
2023-05-03T09:35:09.404Z,2170.00
2023-05-03T09:36:10.222Z,962.00
2023-05-03T09:37:11.036Z,2441.00
2023-05-03T09:38:11.877Z,1396.00
2023-05-03T09:39:12.707Z,1128.00
2023-05-03T09:40:13.533Z,1756.00
2023-05-03T09:41:14.359Z,1429.00
2023-05-03T09:42:15.235Z,2030.00
2023-05-03T09:43:17.532Z,1107.00
2023-05-03T09:44:16.608Z,1121.00
2023-05-03T09:45:17.424Z,1292.00
2023-05-03T09:46:18.273Z,1696.00
2023-05-03T09:47:19.089Z,1474.00
2023-05-03T09:48:19.933Z,1161.00
2023-05-03T09:49:20.754Z,1115.00
2023-05-03T09:50:21.608Z,978.00
2023-05-03T09:51:22.472Z,1421.00
2023-05-03T09:52:23.250Z,871.00
2023-05-03T09:53:24.074Z,681.00
2023-05-03T09:54:25.687Z,730.00
2023-05-03T09:55:25.587Z,920.00
2023-05-03T09:56:26.420Z,1243.00
2023-05-03T09:57:27.265Z,985.00
2023-05-03T09:58:28.071Z,903.00
2023-05-03T09:59:28.897Z,861.00
2023-05-03T10:00:29.753Z,1025.00
2023-05-03T10:01:30.617Z,1002.00
2023-05-03T10:02:31.438Z,861.00
2023-05-03T10:03:32.277Z,841.00
2023-05-03T10:04:33.085Z,922.00
2023-05-03T10:05:33.907Z,1159.00
2023-05-03T10:06:34.779Z,1493.00
2023-05-03T10:07:35.594Z,1443.00
2023-05-03T10:08:36.436Z,1205.00
2023-05-03T10:09:37.252Z,1036.00
2023-05-03T10:10:38.082Z,704.00
2023-05-03T10:11:38.899Z,737.00
2023-05-03T10:12:39.755Z,1257.00
2023-05-03T10:13:40.560Z,1069.00
2023-05-03T10:14:41.381Z,928.00
2023-05-03T10:15:42.235Z,808.00
2023-05-03T10:16:43.100Z,882.00
2023-05-03T10:17:48.228Z,1037.00
2023-05-03T10:18:44.467Z,1157.00
2023-05-03T10:19:45.282Z,970.00
2023-05-03T10:20:46.152Z,886.00
2023-05-03T10:21:46.950Z,1035.00
2023-05-03T10:22:47.833Z,1146.00
2023-05-03T10:23:48.312Z,1131.00
2023-05-03T10:24:49.133Z,1030.00
2023-05-03T10:25:49.958Z,497.00
2023-05-03T10:26:50.816Z,1521.00
2023-05-03T10:27:51.657Z,946.00
2023-05-03T10:28:52.470Z,1834.00
2023-05-03T10:29:53.293Z,1085.00
2023-05-03T10:30:54.189Z,1084.00
2023-05-03T10:31:55.210Z,1240.00
2023-05-03T10:32:55.631Z,1280.00
2023-05-03T10:33:56.421Z,1183.00
2023-05-03T10:34:57.246Z,1382.00
2023-05-03T10:35:58.075Z,1284.00
2023-05-03T10:36:58.901Z,480.00
2023-05-03T10:37:59.755Z,1253.00
2023-05-03T10:39:00.577Z,1176.00
2023-05-03T10:40:01.438Z,1656.00
2023-05-03T10:41:02.256Z,1202.00
2023-05-03T10:42:03.079Z,1077.00
2023-05-03T10:43:03.918Z,872.00
2023-05-03T10:44:04.730Z,866.00
2023-05-03T10:45:05.766Z,1041.00
2023-05-03T10:46:06.322Z,1201.00
2023-05-03T10:47:07.194Z,1109.00
2023-05-03T10:48:08.098Z,1007.00
2023-05-03T10:49:08.883Z,987.00
2023-05-03T10:50:09.735Z,1088.00
2023-05-03T10:51:10.528Z,1084.00
2023-05-03T10:52:11.373Z,1129.00
2023-05-03T10:53:12.185Z,1172.00
2023-05-03T10:54:13.021Z,1170.00
2023-05-03T10:55:13.859Z,1076.00
2023-05-03T10:56:14.688Z,990.00
2023-05-03T10:57:15.504Z,955.00
2023-05-03T10:58:16.359Z,437.00
2023-05-03T10:59:17.175Z,1732.00
2023-05-03T11:00:18.003Z,1064.00
2023-05-03T11:01:18.958Z,930.00
2023-05-03T11:02:19.317Z,931.00
2023-05-03T11:03:20.148Z,974.00
2023-05-03T11:04:21.065Z,1020.00
2023-05-03T11:05:21.907Z,514.00
2023-05-03T11:06:22.765Z,1320.00
2023-05-03T11:07:23.571Z,722.00
2023-05-03T11:08:24.394Z,1116.00
2023-05-03T11:09:25.235Z,1106.00
2023-05-03T11:10:25.768Z,1126.00
2023-05-03T11:11:26.601Z,1110.00
2023-05-03T11:12:27.411Z,1012.00
2023-05-03T11:13:28.311Z,993.00
2023-05-03T11:14:29.105Z,1107.00
2023-05-03T11:15:29.941Z,1059.00
2023-05-03T11:16:30.816Z,1034.00
2023-05-03T11:17:31.314Z,1071.00
2023-05-03T11:18:32.131Z,997.00
2023-05-03T11:19:32.956Z,407.00
2023-05-03T11:20:33.793Z,843.00
2023-05-03T11:21:34.633Z,1461.00
2023-05-03T11:22:35.449Z,496.00
2023-05-03T11:23:36.261Z,1921.00
2023-05-03T11:24:37.112Z,1035.00
2023-05-03T11:25:37.932Z,1046.00
2023-05-03T11:26:38.765Z,917.00
2023-05-03T11:27:39.592Z,479.00
2023-05-03T11:28:40.441Z,1062.00
2023-05-03T11:29:41.263Z,797.00
2023-05-03T11:30:42.104Z,627.00
2023-05-03T11:31:43.012Z,1454.00
2023-05-03T11:32:43.542Z,584.00
2023-05-03T11:33:46.547Z,792.00
2023-05-03T11:34:45.173Z,440.00
2023-05-03T11:35:45.996Z,847.00
2023-05-03T11:36:46.868Z,1757.00
2023-05-03T11:37:47.665Z,616.00
2023-05-03T11:38:48.505Z,828.00
2023-05-03T11:39:49.327Z,857.00
2023-05-03T11:40:50.153Z,984.00
2023-05-03T11:41:50.981Z,946.00
2023-05-03T11:42:51.848Z,859.00
2023-05-03T11:44:01.023Z,1099.00
2023-05-03T11:44:54.391Z,1439.00
2023-05-03T11:45:54.322Z,834.00
2023-05-03T11:46:55.168Z,771.00
2023-05-03T11:47:56.052Z,720.00
2023-05-03T11:48:57.003Z,885.00
2023-05-03T11:49:57.386Z,730.00
2023-05-03T11:50:58.217Z,863.00
2023-05-03T11:51:59.039Z,878.00
2023-05-03T11:52:59.852Z,347.00
2023-05-03T11:54:06.904Z,1306.00
2023-05-03T11:55:02.617Z,1189.00
2023-05-03T11:56:02.067Z,903.00
2023-05-03T11:57:02.898Z,796.00
2023-05-03T11:58:03.718Z,885.00
2023-05-03T11:59:04.579Z,402.00
2023-05-03T12:00:05.372Z,1393.00
2023-05-03T12:01:06.197Z,1308.00
2023-05-03T12:02:07.270Z,919.00
2023-05-03T12:03:07.846Z,923.00
2023-05-03T12:04:08.870Z,1004.00
2023-05-03T12:05:09.984Z,1028.00
2023-05-03T12:06:10.705Z,965.00
2023-05-03T12:07:11.488Z,951.00
2023-05-03T12:08:13.134Z,901.00
2023-05-03T12:09:12.459Z,952.00
2023-05-03T12:10:16.927Z,936.00
2023-05-03T12:11:15.273Z,386.00
2023-05-03T12:12:15.807Z,1009.00
2023-05-03T12:13:17.368Z,1231.00
2023-05-03T12:14:16.252Z,505.00
2023-05-03T12:15:16.900Z,978.00
2023-05-03T12:16:18.576Z,921.00
2023-05-03T12:17:19.130Z,847.00
2023-05-03T12:18:19.121Z,812.00
2023-05-03T12:19:19.389Z,791.00
2023-05-03T12:22:26.393Z,809.00
2023-05-03T12:23:25.987Z,879.00
2023-05-03T12:24:24.570Z,793.00
2023-05-03T12:25:26.020Z,839.00
2023-05-03T12:26:24.334Z,806.00
2023-05-03T12:27:28.000Z,753.00
2023-05-03T12:28:26.145Z,667.00
2023-05-03T12:29:29.325Z,596.00
2023-05-03T12:30:28.921Z,708.00
2023-05-03T12:31:29.027Z,401.00
2023-05-03T12:32:28.741Z,595.00
2023-05-03T12:33:31.500Z,585.00
2023-05-03T12:34:34.827Z,599.00
2023-05-03T12:35:33.861Z,594.00
2023-05-03T12:36:31.939Z,600.00
2023-05-03T12:38:35.800Z,628.00
2023-05-03T12:39:34.111Z,712.00
2023-05-03T12:40:35.263Z,677.00
2023-05-03T12:42:05.183Z,1078.00
2023-05-03T12:42:37.079Z,595.00
2023-05-03T12:43:36.954Z,548.00
2023-05-03T12:44:41.361Z,1428.00
2023-05-03T12:45:40.604Z,678.00
2023-05-03T12:46:39.451Z,641.00
2023-05-03T12:47:43.890Z,536.00
2023-05-03T12:48:40.939Z,757.00
2023-05-03T12:49:45.785Z,763.00